Ely, United Kingdom
Current Conditions -  °F | °C
As of 6:58 PM on Friday 28 Nov 2014 (Local Time) from EGUN Reporting Station
Clear Clear  
Wind Chill: 45°   Ceiling: Unl
Heat Index: 49°   Visibility: 6mi
Dew Point: 47°   Wind: 8mph
Humidity: 94%   Direction: 90°E
Pressure: 29.72"   Gusts: NA
Location:  52.4°N, 0.26°E
Report Text: EGUN 281858Z AUTO 09007KT 9999 CLR 09/09 A2972 RMK AO2 SLP067 T00940085 $
Loading
Personal Weather Stations






























Interactive Weather Map New forecast layout! Learn more

10-Day Weather Forecast

Advertisements
Track Severe Weather on mobile